createdAt,value
2022-08-22T00:01:56.666Z,98939.84
2022-08-22T00:02:45.811Z,98877.09
2022-08-22T00:02:49.335Z,98924.25
2022-08-22T00:02:54.492Z,98928.78
2022-08-22T00:02:54.938Z,98930.31
2022-08-22T00:02:55.895Z,98935.34
2022-08-22T00:02:58.076Z,98940.25
2022-08-22T00:03:01.449Z,98887.28
2022-08-22T00:04:48.804Z,98939.41
2022-08-22T00:07:46.203Z,98945.56
2022-08-22T00:10:39.997Z,98939.22
2022-08-22T00:13:29.380Z,98945.56
2022-08-22T00:16:19.237Z,98945.56
2022-08-22T00:19:09.472Z,98941.88
2022-08-22T00:21:59.923Z,98940.88
2022-08-22T00:24:52.337Z,98941.88
2022-08-22T00:27:45.140Z,98940.25
2022-08-22T00:30:35.770Z,98950.06
2022-08-22T00:33:28.818Z,98949.88
2022-08-22T00:36:20.516Z,98940.88
2022-08-22T00:39:12.211Z,98939.84
2022-08-22T00:42:29.093Z,98933.91
2022-08-22T00:45:39.876Z,98937.00
2022-08-22T00:48:36.611Z,98930.81
2022-08-22T00:51:36.292Z,98934.91
2022-08-22T00:54:30.128Z,98934.91
2022-08-22T00:57:32.277Z,98931.22
2022-08-22T01:00:20.807Z,98938.19
2022-08-22T01:03:25.262Z,98936.16
2022-08-22T01:06:19.611Z,98936.16
2022-08-22T01:09:11.825Z,98923.84
2022-08-22T01:12:06.239Z,98923.22
2022-08-22T01:14:56.827Z,98922.97
2022-08-22T01:18:01.959Z,98920.50
2022-08-22T01:21:11.883Z,98923.34
2022-08-22T01:24:15.836Z,98928.69
2022-08-22T01:27:34.875Z,98931.53
2022-08-22T01:30:39.231Z,98933.59
2022-08-22T01:33:59.544Z,98923.16
2022-08-22T01:36:54.040Z,98925.19
2022-08-22T01:39:58.716Z,98928.25
2022-08-22T01:42:55.711Z,98932.16
2022-08-22T01:46:00.546Z,98933.16
2022-08-22T01:48:52.784Z,98928.66
2022-08-22T01:51:44.326Z,98932.34
2022-08-22T01:54:37.570Z,98935.63
2022-08-22T01:57:26.318Z,98929.28
2022-08-22T02:00:17.867Z,98928.66
2022-08-22T02:03:14.606Z,98933.34
2022-08-22T02:06:07.330Z,98931.50
2022-08-22T02:09:00.355Z,98928.22
2022-08-22T02:11:52.122Z,98933.75
2022-08-22T02:14:41.812Z,98937.63
2022-08-22T02:17:31.487Z,98940.69
2022-08-22T02:20:21.972Z,98936.00
2022-08-22T02:23:18.555Z,98932.31
2022-08-22T02:26:08.582Z,98925.31
2022-08-22T02:28:59.165Z,98931.44
2022-08-22T02:31:49.526Z,98922.81
2022-08-22T02:34:39.988Z,98923.66
2022-08-22T02:37:34.421Z,98934.09
2022-08-22T02:40:27.514Z,98934.72
2022-08-22T02:43:19.284Z,98918.28
2022-08-22T02:46:15.143Z,98915.81
2022-08-22T02:49:07.438Z,98917.06
2022-08-22T02:51:58.405Z,98920.69
2022-08-22T02:54:53.395Z,98931.16
2022-08-22T02:57:43.826Z,98933.59
2022-08-22T03:00:45.433Z,98939.66
2022-08-22T03:03:38.586Z,98939.66
2022-08-22T03:06:34.612Z,98946.38
2022-08-22T03:09:26.008Z,98955.91
2022-08-22T03:12:16.841Z,98957.16
2022-08-22T03:15:08.914Z,98971.44
2022-08-22T03:17:57.343Z,98975.13
2022-08-22T03:20:53.559Z,98981.69
2022-08-22T03:23:44.159Z,98985.63
2022-08-22T03:26:36.468Z,99002.47
2022-08-22T03:29:25.950Z,99002.84
2022-08-22T03:32:14.855Z,99013.88
2022-08-22T03:35:03.983Z,99028.00
2022-08-22T03:37:54.920Z,99027.22
2022-08-22T03:40:50.811Z,99029.06
2022-08-22T03:43:52.525Z,99035.38
2022-08-22T03:46:57.041Z,99037.66
2022-08-22T03:50:00.997Z,99040.13
2022-08-22T03:53:15.602Z,99040.16
2022-08-22T03:56:37.849Z,99051.69
2022-08-22T03:59:42.663Z,99042.34
2022-08-22T04:02:43.578Z,99044.59
2022-08-22T04:05:45.836Z,99043.59
2022-08-22T04:09:04.280Z,99041.56
2022-08-22T04:12:08.122Z,99046.50
2022-08-22T04:15:08.427Z,99061.69
2022-08-22T04:18:03.391Z,99059.28
2022-08-22T04:21:07.853Z,99061.56
2022-08-22T04:24:01.375Z,99064.47
2022-08-22T04:26:51.849Z,99052.44
2022-08-22T04:29:42.738Z,99048.38
2022-08-22T04:32:32.606Z,99043.28
2022-08-22T04:35:28.547Z,99043.16
2022-08-22T04:38:17.862Z,99044.41
2022-08-22T04:41:08.315Z,99041.59
2022-08-22T04:43:58.215Z,99038.09
2022-08-22T04:46:46.673Z,99042.84
2022-08-22T04:49:36.644Z,99038.38
2022-08-22T04:52:31.707Z,99032.66
2022-08-22T04:55:25.759Z,99026.53
2022-08-22T04:58:20.788Z,99034.41
2022-08-22T05:01:11.981Z,99029.09
2022-08-22T05:04:01.716Z,99028.56
2022-08-22T05:06:50.431Z,99017.34
2022-08-22T05:09:40.603Z,99014.53
2022-08-22T05:12:32.884Z,99002.88
2022-08-22T05:15:23.001Z,98994.91
2022-08-22T05:18:11.648Z,98988.31
2022-08-22T05:21:02.767Z,98971.66
2022-08-22T05:23:50.806Z,98974.28
2022-08-22T05:26:42.169Z,98976.56
2022-08-22T05:29:32.089Z,98983.09
2022-08-22T05:32:22.759Z,98983.69
2022-08-22T05:35:10.509Z,98984.09
2022-08-22T05:37:58.058Z,98984.69
2022-08-22T05:40:48.178Z,98989.25
2022-08-22T05:43:38.800Z,98987.03
2022-08-22T05:46:30.419Z,98992.34
2022-08-22T05:49:20.177Z,98994.81
2022-08-22T05:52:10.619Z,98991.06
2022-08-22T05:54:58.946Z,98998.03
2022-08-22T05:57:48.939Z,98992.19
2022-08-22T06:00:41.040Z,98995.44
2022-08-22T06:03:31.720Z,98990.34
2022-08-22T06:06:19.480Z,98997.94
2022-08-22T06:09:08.126Z,98994.28
2022-08-22T06:11:58.820Z,98998.31
2022-08-22T06:14:48.997Z,98995.31
2022-08-22T06:17:40.713Z,99000.31
2022-08-22T06:20:29.216Z,99000.25
2022-08-22T06:23:18.618Z,98996.13
2022-08-22T06:26:05.851Z,98996.00
2022-08-22T06:29:09.462Z,98994.47
2022-08-22T06:31:57.739Z,98991.00
2022-08-22T06:34:47.761Z,98982.19
2022-08-22T06:37:37.144Z,98996.19
2022-08-22T06:40:25.376Z,99002.59
2022-08-22T06:43:13.429Z,98999.66
2022-08-22T06:46:01.383Z,99011.38
2022-08-22T06:48:49.732Z,99009.38
2022-08-22T06:51:39.266Z,99016.13
2022-08-22T06:54:33.803Z,99014.34
2022-08-22T06:57:26.839Z,99010.56
2022-08-22T07:00:16.144Z,99012.16
2022-08-22T07:03:08.772Z,99014.16
2022-08-22T07:05:56.609Z,99019.72
2022-08-22T07:08:45.425Z,99019.97
2022-08-22T07:11:34.060Z,99007.59
2022-08-22T07:14:26.996Z,99011.56
2022-08-22T07:17:17.693Z,99016.50
2022-08-22T07:20:08.076Z,98993.41
2022-08-22T07:22:56.254Z,99001.69
2022-08-22T07:25:50.161Z,99001.69
2022-08-22T07:28:51.633Z,98993.53
2022-08-22T07:31:50.385Z,98997.63
2022-08-22T07:34:44.750Z,98994.69
2022-08-22T07:37:38.859Z,98990.50
2022-08-22T07:40:28.634Z,98987.09
2022-08-22T07:43:23.030Z,98982.88
2022-08-22T07:46:15.933Z,98988.03
2022-08-22T07:49:10.043Z,98996.19
2022-08-22T07:51:59.805Z,98995.94
2022-08-22T07:54:50.336Z,99003.22
2022-08-22T07:57:39.474Z,99003.44
2022-08-22T08:00:29.046Z,98994.31
2022-08-22T08:03:16.415Z,98994.31
2022-08-22T08:06:03.968Z,98990.22
2022-08-22T08:08:51.791Z,98991.66
2022-08-22T08:11:41.732Z,98986.03
2022-08-22T08:14:29.568Z,98993.75
2022-08-22T08:17:39.341Z,98983.47
2022-08-22T08:20:28.414Z,98983.09
2022-08-22T08:23:23.397Z,98993.72
2022-08-22T08:26:13.455Z,98982.38
2022-08-22T08:29:02.494Z,98980.41
2022-08-22T08:31:50.808Z,98972.63
2022-08-22T08:34:40.162Z,98984.50
2022-08-22T08:37:28.883Z,98983.09
2022-08-22T08:40:22.923Z,98984.66
2022-08-22T08:43:34.440Z,98982.50
2022-08-22T08:46:38.537Z,98975.78
2022-08-22T08:49:50.561Z,98985.84
2022-08-22T08:52:58.517Z,98988.06
2022-08-22T08:55:48.577Z,98974.53
2022-08-22T08:58:40.927Z,98986.25
2022-08-22T09:01:45.636Z,98983.06
2022-08-22T09:04:51.028Z,98985.94
2022-08-22T09:11:28.160Z,98978.06
2022-08-22T09:14:22.345Z,98987.59
2022-08-22T09:17:30.940Z,98983.59
2022-08-22T09:20:25.406Z,98982.13
2022-08-22T09:23:24.215Z,98981.94
2022-08-22T09:26:16.698Z,98982.28
2022-08-22T09:29:21.752Z,98969.72
2022-08-22T09:32:13.146Z,98969.84
2022-08-22T09:35:04.651Z,98968.63
2022-08-22T09:38:01.999Z,98965.69
2022-08-22T09:40:51.393Z,98957.28
2022-08-22T09:43:44.729Z,98952.47
2022-08-22T09:46:42.441Z,98954.09
2022-08-22T09:49:36.113Z,98951.19
2022-08-22T09:52:34.661Z,98954.53
2022-08-22T09:55:35.639Z,98952.63
2022-08-22T09:58:27.850Z,98943.34
2022-08-22T10:01:25.883Z,98939.59
2022-08-22T10:04:32.381Z,98927.44
2022-08-22T10:07:34.183Z,98936.69
2022-08-22T10:10:27.682Z,98938.25
2022-08-22T10:13:24.335Z,98943.66
2022-08-22T10:16:22.429Z,98958.72
2022-08-22T10:19:16.569Z,98954.75
2022-08-22T10:22:32.013Z,98963.03
2022-08-22T10:25:28.432Z,98949.78
2022-08-22T10:28:24.397Z,98954.06
2022-08-22T10:31:27.058Z,98943.56
2022-08-22T10:34:16.508Z,98951.66
2022-08-22T10:37:10.453Z,98956.25
2022-08-22T10:40:02.564Z,98942.06
2022-08-22T10:42:53.854Z,98952.06
2022-08-22T10:45:43.185Z,98953.72
2022-08-22T10:48:42.081Z,98960.34
2022-08-22T10:51:36.698Z,98971.22
2022-08-22T10:54:38.465Z,98970.59
2022-08-22T10:57:41.677Z,98972.22
2022-08-22T11:00:37.202Z,98975.97
2022-08-22T11:03:41.191Z,98979.41
2022-08-22T11:06:31.517Z,98989.25
2022-08-22T11:09:28.097Z,98990.25
2022-08-22T11:12:19.533Z,98992.34
2022-08-22T11:15:08.729Z,98986.25
2022-08-22T11:18:12.991Z,98979.09
2022-08-22T11:21:03.552Z,98974.66
2022-08-22T11:24:00.459Z,98968.97
2022-08-22T11:26:54.403Z,98966.50
2022-08-22T11:29:46.272Z,98965.69
2022-08-22T11:32:37.637Z,98959.25
2022-08-22T11:35:26.087Z,98966.69
2022-08-22T11:38:19.333Z,98974.84
2022-08-22T11:41:11.502Z,98966.63
2022-08-22T11:44:03.455Z,98959.63
2022-08-22T11:46:51.798Z,98964.16
2022-08-22T11:49:45.293Z,98962.25
2022-08-22T11:52:52.645Z,98956.53
2022-08-22T11:55:44.728Z,98952.81
2022-08-22T11:58:41.234Z,98952.50
2022-08-22T12:01:34.493Z,98953.50
2022-08-22T12:04:29.613Z,98963.69
2022-08-22T12:07:19.545Z,98962.03
2022-08-22T12:10:13.815Z,98963.38
2022-08-22T12:13:06.793Z,98958.81
2022-08-22T12:16:02.693Z,98956.72
2022-08-22T12:18:55.644Z,98950.53
2022-08-22T12:22:00.449Z,98951.59
2022-08-22T12:24:53.928Z,98955.94
2022-08-22T12:27:55.093Z,98952.44
2022-08-22T12:30:46.713Z,98940.16
2022-08-22T12:33:48.786Z,98942.63
2022-08-22T12:36:54.912Z,98938.91
2022-08-22T12:39:56.121Z,98933.16
2022-08-22T12:42:52.980Z,98931.28
2022-08-22T12:45:46.905Z,98919.81
2022-08-22T12:48:47.767Z,98920.53
2022-08-22T12:51:39.203Z,98913.13
2022-08-22T12:54:42.178Z,98920.91
2022-08-22T12:57:36.775Z,98917.28
2022-08-22T13:00:30.800Z,98919.63
2022-08-22T13:03:24.146Z,98911.81
2022-08-22T13:06:27.354Z,98905.44
2022-08-22T13:09:19.568Z,98917.19
2022-08-22T13:12:19.840Z,98917.16
2022-08-22T13:15:12.537Z,98909.88
2022-08-22T13:18:19.178Z,98909.31
2022-08-22T13:21:15.074Z,98903.28
2022-08-22T13:24:06.045Z,98909.69
2022-08-22T13:27:02.716Z,98910.16
2022-08-22T13:29:57.049Z,98898.28
2022-08-22T13:32:46.709Z,98898.19
2022-08-22T13:35:35.270Z,98905.75
2022-08-22T13:38:26.139Z,98905.69
2022-08-22T13:41:14.149Z,98898.56
2022-08-22T13:44:13.288Z,98896.94
2022-08-22T13:47:14.363Z,98897.19
2022-08-22T13:50:07.199Z,98903.94
2022-08-22T13:52:57.520Z,98910.13
2022-08-22T13:55:49.171Z,98914.13
2022-08-22T13:58:39.655Z,98916.91
2022-08-22T14:01:44.828Z,98917.41
2022-08-22T14:04:37.401Z,98922.13
2022-08-22T14:07:31.160Z,98923.56
2022-08-22T14:10:21.857Z,98926.38
2022-08-22T14:13:28.163Z,98937.44
2022-08-22T14:16:22.147Z,98932.22
2022-08-22T14:19:11.160Z,98931.47
2022-08-22T14:22:03.216Z,98923.13
2022-08-22T14:24:55.695Z,98920.25
2022-08-22T14:27:47.439Z,98923.13
2022-08-22T14:30:54.257Z,98924.75
2022-08-22T14:33:48.065Z,98923.75
2022-08-22T14:36:39.092Z,98925.41
2022-08-22T14:39:31.281Z,98932.03
2022-08-22T14:42:23.837Z,98927.03
2022-08-22T14:45:16.329Z,98929.56
2022-08-22T14:48:29.630Z,98926.31
2022-08-22T14:51:21.186Z,98935.63
2022-08-22T14:54:21.540Z,98936.72
2022-08-22T14:57:14.160Z,98938.41
2022-08-22T15:00:11.787Z,98943.16
2022-08-22T15:03:08.581Z,98928.81
2022-08-22T15:05:57.310Z,98932.06
2022-08-22T15:08:49.737Z,98929.38
2022-08-22T15:11:42.183Z,98920.31
2022-08-22T15:15:02.919Z,98922.53
2022-08-22T15:17:54.015Z,98919.47
2022-08-22T15:20:49.360Z,98916.47
2022-08-22T15:24:08.296Z,98918.66
2022-08-22T15:26:57.805Z,98926.91
2022-08-22T15:29:50.641Z,98928.72
2022-08-22T15:32:41.766Z,98939.78
2022-08-22T15:35:32.217Z,98942.66
2022-08-22T15:38:27.662Z,98943.63
2022-08-22T15:41:32.580Z,98933.63
2022-08-22T15:44:32.305Z,98935.66
2022-08-22T15:47:31.530Z,98943.34
2022-08-22T15:50:31.845Z,98935.91
2022-08-22T15:53:20.919Z,98935.97
2022-08-22T15:56:29.061Z,98936.19
2022-08-22T15:59:26.421Z,98935.00
2022-08-22T16:02:23.619Z,98941.47
2022-08-22T16:05:22.997Z,98936.94
2022-08-22T16:08:12.858Z,98931.31
2022-08-22T16:11:16.788Z,98937.41
2022-08-22T16:14:27.137Z,98939.69
2022-08-22T16:17:40.085Z,98937.56
2022-08-22T16:20:47.076Z,98938.75
2022-08-22T16:23:56.732Z,98942.94
2022-08-22T16:26:44.930Z,98937.69
2022-08-22T16:29:41.565Z,98934.03
2022-08-22T16:32:29.179Z,98932.78
2022-08-22T16:35:41.118Z,98925.50
2022-08-22T16:38:36.669Z,98924.47
2022-08-22T16:41:29.980Z,98923.69
2022-08-22T16:44:41.438Z,98930.09
2022-08-22T16:47:40.771Z,98938.13
2022-08-22T16:50:34.053Z,98929.94
2022-08-22T16:53:35.843Z,98933.13
2022-08-22T16:56:27.510Z,98946.72
2022-08-22T16:59:24.487Z,98952.50
2022-08-22T17:02:17.464Z,98955.97
2022-08-22T17:05:11.645Z,98957.63
2022-08-22T17:08:12.622Z,98957.97
2022-08-22T17:11:03.525Z,98968.31
2022-08-22T17:13:57.884Z,98968.53
2022-08-22T17:16:56.380Z,98966.88
2022-08-22T17:19:54.402Z,98962.56
2022-08-22T17:22:45.909Z,98970.41
2022-08-22T17:25:37.065Z,98976.63
2022-08-22T17:28:35.236Z,98982.56
2022-08-22T17:31:30.090Z,98985.69
2022-08-22T17:34:26.028Z,98992.69
2022-08-22T17:37:18.178Z,99000.97
2022-08-22T17:40:15.663Z,99000.59
2022-08-22T17:43:12.409Z,99002.09
2022-08-22T17:46:05.530Z,99007.84
2022-08-22T17:48:55.129Z,99018.78
2022-08-22T17:51:47.101Z,99020.88
2022-08-22T17:54:40.486Z,99030.31
2022-08-22T17:57:30.653Z,99032.81
2022-08-22T18:00:19.226Z,99036.53
2022-08-22T18:03:09.049Z,99039.88
2022-08-22T18:06:00.862Z,99037.81
2022-08-22T18:12:02.793Z,99028.78
2022-08-22T18:14:51.690Z,99030.41
2022-08-22T18:17:43.468Z,99021.47
2022-08-22T18:20:52.160Z,99025.50
2022-08-22T18:24:00.486Z,99016.50
2022-08-22T18:27:07.280Z,99016.50
2022-08-22T18:30:20.543Z,99018.97
2022-08-22T18:33:31.614Z,99026.34
2022-08-22T18:36:40.893Z,99042.81
2022-08-22T18:39:53.057Z,99051.91
2022-08-22T18:43:05.185Z,99066.72
2022-08-22T18:46:40.224Z,99071.66
2022-08-22T18:49:48.448Z,99062.22
2022-08-22T18:52:55.826Z,99063.44
2022-08-22T18:56:08.418Z,99062.59
2022-08-22T18:59:20.702Z,99065.53
2022-08-22T19:02:51.005Z,99069.59
2022-08-22T19:06:14.958Z,99066.53
2022-08-22T19:09:34.172Z,99072.66
2022-08-22T19:12:53.991Z,99075.56
2022-08-22T19:16:47.209Z,99102.84
2022-08-22T19:20:14.656Z,99102.47
2022-08-22T19:23:40.597Z,99115.59
2022-08-22T19:26:48.282Z,99126.28
2022-08-22T19:29:56.657Z,99140.03
2022-08-22T19:33:04.047Z,99155.84
2022-08-22T19:36:11.413Z,99167.34
2022-08-22T19:39:31.690Z,99180.06
2022-08-22T19:42:39.003Z,99174.09
2022-08-22T19:45:45.728Z,99173.91
2022-08-22T19:48:53.037Z,99171.44
2022-08-22T19:52:04.539Z,99170.59
2022-08-22T19:55:14.017Z,99161.56
2022-08-22T19:58:31.958Z,99155.19
2022-08-22T20:01:50.181Z,99156.66
2022-08-22T20:05:13.541Z,99160.34
2022-08-22T20:08:37.590Z,99160.53
2022-08-22T20:11:49.506Z,99148.00
2022-08-22T20:14:54.892Z,99148.41
2022-08-22T20:21:58.116Z,99126.22
2022-08-22T20:25:06.228Z,99124.78
2022-08-22T20:28:45.310Z,99122.94
2022-08-22T20:31:54.406Z,99116.38
2022-08-22T20:35:06.015Z,99107.75
2022-08-22T20:38:14.213Z,99110.19
2022-08-22T20:41:22.459Z,99104.88
2022-08-22T20:44:31.664Z,99105.28
2022-08-22T20:47:41.364Z,99101.16
2022-08-22T20:50:49.081Z,99115.28
2022-08-22T20:53:55.321Z,99132.69
2022-08-22T20:57:01.987Z,99121.63
2022-08-22T21:00:10.340Z,99112.16
2022-08-22T21:03:23.712Z,99114.19
2022-08-22T21:06:32.265Z,99107.00
2022-08-22T21:09:55.093Z,99114.59
2022-08-22T21:13:04.856Z,99117.47
2022-08-22T21:16:12.837Z,99121.97
2022-08-22T21:19:20.447Z,99113.75
2022-08-22T21:22:30.875Z,99117.81
2022-08-22T21:25:48.480Z,99120.22
2022-08-22T21:28:58.408Z,99124.13
2022-08-22T21:32:11.126Z,99109.94
2022-08-22T21:35:23.535Z,99108.50
2022-08-22T21:38:30.040Z,99106.00
2022-08-22T21:41:40.913Z,99103.31
2022-08-22T21:44:56.778Z,99105.31
2022-08-22T21:48:02.183Z,99108.66
2022-08-22T21:51:24.289Z,99107.00
2022-08-22T21:54:41.700Z,99107.00
2022-08-22T21:57:47.064Z,99106.56
2022-08-22T22:00:53.337Z,99095.84
2022-08-22T22:03:59.074Z,99101.16
2022-08-22T22:07:04.732Z,99089.28
2022-08-22T22:10:13.875Z,99089.66
2022-08-22T22:13:20.762Z,99080.66
2022-08-22T22:16:29.953Z,99080.28
2022-08-22T22:19:35.112Z,99083.94
2022-08-22T22:22:46.270Z,99074.75
2022-08-22T22:25:54.109Z,99078.25
2022-08-22T22:29:00.198Z,99069.19
2022-08-22T22:32:05.422Z,99067.38
2022-08-22T22:35:10.893Z,99078.47
2022-08-22T22:38:23.369Z,99093.44
2022-08-22T22:41:30.941Z,99097.09
2022-08-22T22:44:36.064Z,99097.09
2022-08-22T22:47:41.629Z,99087.34
2022-08-22T22:50:47.077Z,99086.94
2022-08-22T22:53:52.290Z,99082.88
2022-08-22T22:56:59.377Z,99078.94
2022-08-22T23:00:05.158Z,99080.41
2022-08-22T23:03:11.124Z,99072.81
2022-08-22T23:06:18.735Z,99069.75
2022-08-22T23:09:37.903Z,99069.94
2022-08-22T23:12:45.324Z,99079.59
2022-08-22T23:15:50.476Z,99091.53
2022-08-22T23:18:56.053Z,99090.06
2022-08-22T23:22:02.153Z,99078.38
2022-08-22T23:25:08.508Z,99067.72
2022-08-22T23:28:14.968Z,99077.53
2022-08-22T23:31:28.472Z,99080.84
2022-08-22T23:34:35.248Z,99073.44
2022-08-22T23:37:40.534Z,99071.03
2022-08-22T23:40:45.605Z,99071.44
2022-08-22T23:43:54.095Z,99067.72
2022-08-22T23:46:59.812Z,99070.19
2022-08-22T23:50:06.331Z,99081.66
2022-08-22T23:53:11.886Z,99091.91
2022-08-22T23:56:19.168Z,99085.56
2022-08-22T23:59:30.730Z,99090.69
